createdAt,value
2018-03-16T09:31:59.885Z,496.00
2018-03-16T09:32:59.806Z,468.00
2018-03-16T09:34:53.150Z,448.00
2018-03-16T09:35:53.107Z,420.00
2018-03-16T09:37:46.489Z,476.00
2018-03-16T09:38:46.401Z,492.00
2018-03-16T09:40:39.722Z,496.00
2018-03-16T09:41:39.705Z,520.00
2018-03-16T09:43:33.065Z,400.00
2018-03-16T09:44:32.985Z,564.00
2018-03-16T09:46:26.315Z,424.00
2018-03-16T09:47:26.286Z,492.00
2018-03-16T09:49:20.660Z,540.00
2018-03-16T09:50:20.582Z,492.00
2018-03-16T09:52:13.965Z,556.00
2018-03-16T09:53:13.877Z,572.00
2018-03-16T09:55:07.206Z,552.00
2018-03-16T09:56:07.178Z,760.00
2018-03-16T09:58:01.551Z,616.00
2018-03-16T09:59:01.472Z,496.00
2018-03-16T10:00:54.802Z,552.00
2018-03-16T10:01:54.769Z,528.00
2018-03-16T10:03:48.144Z,652.00
2018-03-16T10:04:48.069Z,608.00
2018-03-16T10:06:41.458Z,684.00
2018-03-16T10:07:41.383Z,676.00
2018-03-16T10:09:35.746Z,704.00
2018-03-16T10:10:35.667Z,736.00
2018-03-16T10:12:28.997Z,872.00
2018-03-16T10:13:28.965Z,848.00
2018-03-16T10:15:22.340Z,936.00
2018-03-16T10:16:22.266Z,888.00
2018-03-16T10:18:15.637Z,860.00
2018-03-16T10:19:15.562Z,884.00
2018-03-16T10:21:08.891Z,924.00
2018-03-16T10:22:08.862Z,984.00
2018-03-16T10:24:02.245Z,924.00
2018-03-16T10:25:02.168Z,864.00
2018-03-16T10:26:55.507Z,804.00
2018-03-16T10:27:55.478Z,932.00
2018-03-16T10:29:48.853Z,1072.00
2018-03-16T10:30:48.776Z,932.00
2018-03-16T10:32:42.139Z,852.00
2018-03-16T10:33:42.075Z,872.00
2018-03-16T10:35:35.450Z,744.00
2018-03-16T10:36:35.374Z,804.00
2018-03-16T10:38:28.740Z,736.00
2018-03-16T10:39:28.709Z,744.00
2018-03-16T10:41:22.086Z,848.00
2018-03-16T10:42:22.009Z,764.00
2018-03-16T10:44:15.367Z,964.00
2018-03-16T10:45:15.313Z,852.00
2018-03-16T10:47:08.694Z,804.00
2018-03-16T10:48:08.609Z,1000.00
2018-03-16T10:50:03.393Z,1016.00
2018-03-16T10:51:02.982Z,1012.00
2018-03-16T10:52:56.237Z,964.00
2018-03-16T10:53:56.208Z,948.00
2018-03-16T10:55:49.581Z,924.00
2018-03-16T10:56:49.505Z,824.00
2018-03-16T10:57:49.479Z,888.00
2018-03-16T10:58:49.456Z,984.00
2018-03-16T10:59:49.436Z,1016.00
2018-03-16T11:00:49.408Z,948.00
2018-03-16T11:01:49.381Z,1004.00
2018-03-16T11:02:49.361Z,880.00
2018-03-16T11:03:49.328Z,856.00
2018-03-16T11:04:49.306Z,704.00
2018-03-16T11:05:49.282Z,816.00
2018-03-16T11:06:49.255Z,828.00
2018-03-16T11:07:49.233Z,700.00
2018-03-16T11:08:49.204Z,900.00
2018-03-16T11:09:49.187Z,1012.00
2018-03-16T11:10:49.157Z,800.00
2018-03-16T11:11:49.129Z,756.00
2018-03-16T11:12:49.106Z,692.00
2018-03-16T11:13:49.081Z,652.00
2018-03-16T11:14:49.060Z,636.00
2018-03-16T11:15:49.028Z,672.00
2018-03-16T11:16:49.006Z,796.00
2018-03-16T11:17:48.986Z,796.00
2018-03-16T11:18:48.955Z,668.00
2018-03-16T11:19:48.933Z,796.00
2018-03-16T11:20:48.915Z,940.00
2018-03-16T11:21:48.880Z,1024.00
2018-03-16T11:22:48.860Z,984.00
2018-03-16T11:23:48.830Z,964.00
2018-03-16T11:24:48.809Z,736.00
2018-03-16T11:25:48.782Z,848.00
2018-03-16T11:26:48.763Z,876.00
2018-03-16T11:27:48.732Z,1028.00
2018-03-16T11:28:48.706Z,940.00
2018-03-16T11:29:48.684Z,1060.00
2018-03-16T11:30:48.659Z,1064.00
2018-03-16T11:31:48.636Z,984.00
2018-03-16T11:32:48.607Z,884.00
2018-03-16T11:33:48.590Z,864.00
2018-03-16T11:34:48.559Z,952.00
2018-03-16T11:35:48.531Z,960.00
2018-03-16T11:36:48.509Z,1124.00
2018-03-16T11:37:48.483Z,1068.00
2018-03-16T11:38:48.463Z,1108.00
2018-03-16T11:39:48.430Z,780.00
2018-03-16T11:40:48.410Z,912.00
2018-03-16T11:41:48.388Z,772.00
2018-03-16T11:42:48.361Z,964.00
2018-03-16T11:43:48.335Z,876.00
2018-03-16T11:44:48.307Z,832.00
2018-03-16T11:45:48.289Z,908.00
2018-03-16T11:46:48.257Z,860.00
2018-03-16T11:47:48.233Z,936.00
2018-03-16T11:48:48.207Z,856.00
2018-03-16T11:49:48.182Z,940.00
2018-03-16T11:50:48.166Z,1108.00
2018-03-16T11:51:48.134Z,996.00
2018-03-16T11:52:48.108Z,968.00
2018-03-16T11:53:48.084Z,956.00
2018-03-16T11:54:48.064Z,1020.00
2018-03-16T11:55:48.041Z,960.00
2018-03-16T11:56:48.007Z,872.00
2018-03-16T11:57:47.988Z,852.00
2018-03-16T11:58:47.963Z,912.00
2018-03-16T11:59:47.938Z,828.00
2018-03-16T12:00:47.923Z,904.00
2018-03-16T12:01:47.893Z,872.00
2018-03-16T12:02:47.859Z,904.00
2018-03-16T12:03:47.840Z,904.00
2018-03-16T12:04:47.807Z,920.00
2018-03-16T12:05:47.784Z,800.00
2018-03-16T12:06:47.759Z,884.00
2018-03-16T12:07:47.731Z,688.00
2018-03-16T12:08:47.708Z,664.00
2018-03-16T12:09:47.682Z,816.00
2018-03-16T12:10:47.668Z,844.00
2018-03-16T12:11:47.632Z,984.00
2018-03-16T12:12:47.608Z,764.00
2018-03-16T12:13:47.583Z,912.00
2018-03-16T12:14:47.558Z,848.00
2018-03-16T12:15:47.541Z,948.00
2018-03-16T12:16:47.508Z,1140.00
2018-03-16T12:17:47.486Z,880.00
2018-03-16T12:18:47.458Z,1008.00
2018-03-16T12:19:47.435Z,924.00
2018-03-16T12:20:47.409Z,804.00
2018-03-16T12:21:47.383Z,920.00
2018-03-16T12:22:47.359Z,860.00
2018-03-16T12:23:47.334Z,952.00
2018-03-16T12:24:47.340Z,844.00
2018-03-16T12:25:47.284Z,896.00
2018-03-16T12:26:47.258Z,1056.00
2018-03-16T12:27:47.233Z,1120.00
2018-03-16T12:28:49.951Z,1080.00
2018-03-16T12:29:47.184Z,1076.00
2018-03-16T12:30:47.158Z,1032.00
2018-03-16T12:31:47.133Z,1104.00
2018-03-16T12:32:47.107Z,908.00
2018-03-16T12:33:47.083Z,856.00
2018-03-16T12:34:47.058Z,920.00
2018-03-16T12:35:47.034Z,928.00
2018-03-16T12:36:47.007Z,1056.00
2018-03-16T12:37:46.982Z,904.00
2018-03-16T12:38:46.965Z,984.00
2018-03-16T12:39:46.937Z,976.00
2018-03-16T12:40:46.908Z,1012.00
2018-03-16T12:41:46.885Z,1108.00
2018-03-16T12:42:46.858Z,920.00
2018-03-16T12:43:46.834Z,932.00
2018-03-16T12:44:46.808Z,872.00
2018-03-16T12:45:46.782Z,808.00
2018-03-16T12:46:46.771Z,864.00
2018-03-16T12:47:46.733Z,788.00
2018-03-16T12:48:46.708Z,852.00
2018-03-16T12:49:46.683Z,976.00
2018-03-16T12:50:46.678Z,1012.00
2018-03-16T12:51:46.636Z,964.00
2018-03-16T12:52:46.608Z,908.00
2018-03-16T12:53:46.584Z,1040.00
2018-03-16T12:54:46.566Z,940.00
2018-03-16T12:55:46.538Z,1024.00
2018-03-16T12:56:46.507Z,1128.00
2018-03-16T12:57:46.485Z,936.00
2018-03-16T12:58:46.461Z,892.00
2018-03-16T12:59:46.440Z,1068.00
2018-03-16T13:00:46.418Z,1072.00
2018-03-16T13:01:46.383Z,1252.00
2018-03-16T13:02:47.215Z,1232.00
2018-03-16T13:03:46.335Z,1304.00
2018-03-16T13:04:46.310Z,1332.00
2018-03-16T13:05:46.283Z,1204.00
2018-03-16T13:06:46.286Z,1112.00
2018-03-16T13:07:46.233Z,1144.00
2018-03-16T13:08:46.206Z,1028.00
2018-03-16T13:09:46.210Z,1020.00
2018-03-16T13:10:46.156Z,1004.00
2018-03-16T13:11:46.129Z,936.00
2018-03-16T13:12:46.104Z,780.00
2018-03-16T13:13:46.088Z,880.00
2018-03-16T13:14:46.117Z,832.00
2018-03-16T13:15:46.035Z,884.00
2018-03-16T13:16:46.005Z,876.00
2018-03-16T13:17:45.994Z,976.00
2018-03-16T13:18:45.955Z,992.00
2018-03-16T13:19:45.929Z,820.00
2018-03-16T13:20:45.961Z,832.00
2018-03-16T13:21:45.878Z,784.00
2018-03-16T13:22:45.853Z,900.00
2018-03-16T13:23:45.827Z,1032.00
2018-03-16T13:24:45.803Z,1144.00
2018-03-16T13:25:45.781Z,980.00
2018-03-16T13:26:45.770Z,660.00
2018-03-16T13:27:45.728Z,800.00
2018-03-16T13:28:45.702Z,908.00
2018-03-16T13:29:45.716Z,836.00
2018-03-16T13:30:45.667Z,740.00
2018-03-16T13:31:45.632Z,752.00
2018-03-16T13:32:45.601Z,776.00
2018-03-16T13:33:45.578Z,680.00
2018-03-16T13:34:45.551Z,628.00
2018-03-16T13:35:45.568Z,808.00
2018-03-16T13:36:45.503Z,760.00
2018-03-16T13:37:45.476Z,724.00
2018-03-16T13:38:45.451Z,628.00
2018-03-16T13:39:45.425Z,768.00
2018-03-16T13:40:45.442Z,724.00
2018-03-16T13:41:45.400Z,604.00
2018-03-16T13:42:45.418Z,584.00
2018-03-16T13:43:45.324Z,588.00
2018-03-16T13:44:45.299Z,696.00
2018-03-16T13:45:45.276Z,680.00
2018-03-16T13:46:45.248Z,468.00
2018-03-16T13:47:45.225Z,604.00
2018-03-16T13:48:45.198Z,692.00
2018-03-16T13:49:45.179Z,688.00
2018-03-16T13:50:45.150Z,572.00
2018-03-16T13:51:45.121Z,468.00
2018-03-16T13:52:45.096Z,512.00
2018-03-16T13:53:45.078Z,520.00
2018-03-16T13:54:45.044Z,540.00
2018-03-16T13:55:45.032Z,520.00
2018-03-16T13:56:45.059Z,448.00
2018-03-16T13:57:45.007Z,456.00
2018-03-16T13:58:44.946Z,432.00
2018-03-16T13:59:44.918Z,412.00
2018-03-16T14:00:44.895Z,368.00
2018-03-16T14:01:44.864Z,468.00
2018-03-16T14:02:44.841Z,416.00
2018-03-16T14:03:44.816Z,496.00
2018-03-16T14:04:44.791Z,480.00
2018-03-16T14:05:44.764Z,460.00
2018-03-16T14:06:44.760Z,480.00
2018-03-16T14:07:44.712Z,508.00
2018-03-16T14:08:44.687Z,508.00
2018-03-16T14:09:44.672Z,464.00
2018-03-16T14:10:44.660Z,548.00
2018-03-16T14:11:44.611Z,544.00
2018-03-16T14:12:44.625Z,556.00
2018-03-16T14:13:44.559Z,544.00
2018-03-16T14:14:44.533Z,504.00
2018-03-16T14:15:44.514Z,548.00
2018-03-16T14:16:44.487Z,604.00
2018-03-16T14:17:44.520Z,576.00
2018-03-16T14:18:44.497Z,588.00
2018-03-16T14:19:44.449Z,640.00
2018-03-16T14:20:44.378Z,644.00
2018-03-16T14:21:44.356Z,592.00
2018-03-16T14:22:44.417Z,556.00
2018-03-16T14:23:44.336Z,588.00
2018-03-16T14:24:44.302Z,516.00
2018-03-16T14:25:44.258Z,516.00
2018-03-16T14:26:44.228Z,504.00
2018-03-16T14:27:44.198Z,520.00
2018-03-16T14:28:44.178Z,548.00
2018-03-16T14:29:44.165Z,504.00
2018-03-16T14:30:44.133Z,604.00
2018-03-16T14:31:44.103Z,620.00
2018-03-16T14:32:44.069Z,628.00
2018-03-16T14:33:44.058Z,572.00
2018-03-16T14:34:44.022Z,552.00
2018-03-16T14:35:43.991Z,640.00
2018-03-16T14:36:44.034Z,648.00
2018-03-16T14:37:44.011Z,556.00
2018-03-16T14:38:43.915Z,532.00
2018-03-16T14:39:43.930Z,532.00
2018-03-16T14:40:43.863Z,512.00
2018-03-16T14:41:43.874Z,592.00
2018-03-16T14:42:43.813Z,564.00
2018-03-16T14:43:43.793Z,580.00
2018-03-16T14:44:43.769Z,612.00
2018-03-16T14:45:43.733Z,560.00
2018-03-16T14:46:43.725Z,636.00
2018-03-16T14:47:43.739Z,784.00
2018-03-16T14:48:43.709Z,648.00
2018-03-16T14:49:43.638Z,624.00
2018-03-16T14:50:43.609Z,556.00
2018-03-16T14:51:43.660Z,592.00
2018-03-16T14:52:43.617Z,620.00
2018-03-16T14:53:43.528Z,560.00
2018-03-16T14:54:43.501Z,476.00
2018-03-16T14:55:43.476Z,536.00
2018-03-16T14:56:43.449Z,568.00
2018-03-16T14:57:43.469Z,640.00
2018-03-16T14:58:43.408Z,604.00
2018-03-16T14:59:43.432Z,588.00
2018-03-16T15:00:44.186Z,632.00
2018-03-16T15:01:43.341Z,552.00
2018-03-16T15:02:43.294Z,564.00
2018-03-16T15:03:43.271Z,504.00
2018-03-16T15:04:43.242Z,596.00
2018-03-16T15:05:43.227Z,588.00
2018-03-16T15:06:43.235Z,628.00
2018-03-16T15:07:43.163Z,704.00
2018-03-16T15:08:43.138Z,680.00
2018-03-16T15:09:43.116Z,752.00
2018-03-16T15:10:43.085Z,748.00
2018-03-16T15:11:43.059Z,620.00
2018-03-16T15:12:43.043Z,516.00
2018-03-16T15:13:43.028Z,564.00
2018-03-16T15:14:43.026Z,600.00
2018-03-16T15:15:42.990Z,600.00
2018-03-16T15:16:42.937Z,764.00
2018-03-16T15:17:42.903Z,768.00
2018-03-16T15:18:42.878Z,660.00
2018-03-16T15:19:42.850Z,660.00
2018-03-16T15:20:42.832Z,624.00
2018-03-16T15:21:42.829Z,728.00
2018-03-16T15:22:43.259Z,712.00
2018-03-16T15:23:43.527Z,732.00
2018-03-16T15:24:43.994Z,488.00
2018-03-16T15:25:42.737Z,588.00
2018-03-16T15:26:44.171Z,568.00
2018-03-16T15:27:43.322Z,568.00
2018-03-16T15:28:43.987Z,492.00
2018-03-16T15:29:42.605Z,704.00
2018-03-16T15:30:42.565Z,640.00
2018-03-16T15:31:42.538Z,580.00
2018-03-16T15:32:42.733Z,640.00
2018-03-16T15:33:42.490Z,692.00
2018-03-16T15:34:42.468Z,632.00
2018-03-16T15:35:43.017Z,624.00
2018-03-16T15:36:42.407Z,672.00
2018-03-16T15:37:42.383Z,668.00
2018-03-16T15:38:42.355Z,628.00
2018-03-16T15:39:42.328Z,668.00
2018-03-16T15:40:42.304Z,720.00
2018-03-16T15:41:42.350Z,648.00
2018-03-16T15:42:42.273Z,576.00
2018-03-16T15:43:42.223Z,576.00
2018-03-16T15:44:42.270Z,676.00
2018-03-16T15:45:42.176Z,612.00
2018-03-16T15:46:42.159Z,424.00
2018-03-16T15:47:42.119Z,536.00
2018-03-16T15:48:42.091Z,604.00
2018-03-16T15:49:42.068Z,564.00
2018-03-16T15:50:42.043Z,568.00
2018-03-16T15:51:42.015Z,468.00
2018-03-16T15:52:42.014Z,504.00
2018-03-16T15:53:41.964Z,416.00
2018-03-16T15:54:41.987Z,592.00
2018-03-16T15:55:41.962Z,512.00
2018-03-16T15:56:41.883Z,396.00
2018-03-16T15:57:41.950Z,428.00
2018-03-16T15:58:41.833Z,484.00
2018-03-16T15:59:41.805Z,420.00
2018-03-16T16:00:41.778Z,528.00
2018-03-16T16:01:41.754Z,552.00
2018-03-16T16:02:41.727Z,488.00
2018-03-16T16:03:41.701Z,432.00
2018-03-16T16:04:41.675Z,404.00
2018-03-16T16:05:41.647Z,416.00
2018-03-16T16:06:41.625Z,456.00
2018-03-16T16:07:41.593Z,360.00
2018-03-16T16:08:41.572Z,396.00
2018-03-16T16:09:41.545Z,372.00
2018-03-16T16:10:41.513Z,300.00
2018-03-16T16:11:41.489Z,316.00
2018-03-16T16:12:41.469Z,312.00
2018-03-16T16:13:41.437Z,256.00
2018-03-16T16:14:41.416Z,228.00
2018-03-16T16:15:41.410Z,248.00
2018-03-16T16:16:41.380Z,252.00
2018-03-16T16:17:41.335Z,324.00
2018-03-16T16:18:41.309Z,332.00
2018-03-16T16:19:41.337Z,336.00
2018-03-16T16:20:41.254Z,428.00
2018-03-16T16:21:41.227Z,348.00
2018-03-16T16:22:41.201Z,368.00
2018-03-16T16:23:41.176Z,412.00
2018-03-16T16:24:41.210Z,380.00
2018-03-16T16:25:41.123Z,368.00
2018-03-16T16:26:41.094Z,396.00
2018-03-16T16:27:41.122Z,408.00
2018-03-16T16:28:41.042Z,400.00
2018-03-16T16:29:41.019Z,384.00
2018-03-16T16:30:41.028Z,384.00
2018-03-16T16:31:40.970Z,364.00
2018-03-16T16:32:40.939Z,364.00
2018-03-16T16:33:40.947Z,348.00
2018-03-16T16:34:41.709Z,340.00
2018-03-16T16:35:40.914Z,312.00
2018-03-16T16:36:40.831Z,296.00
2018-03-16T16:37:40.817Z,304.00
2018-03-16T16:38:40.777Z,296.00
2018-03-16T16:39:40.750Z,212.00
2018-03-16T16:40:40.724Z,208.00
2018-03-16T16:41:40.696Z,228.00
2018-03-16T16:42:40.682Z,216.00
2018-03-16T16:43:40.645Z,200.00
2018-03-16T16:44:40.620Z,188.00
2018-03-16T16:45:40.591Z,168.00
2018-03-16T16:46:40.570Z,140.00
2018-03-16T16:47:40.587Z,152.00
2018-03-16T16:48:40.512Z,112.00
2018-03-16T16:49:40.485Z,104.00
2018-03-16T16:50:40.459Z,80.00
2018-03-16T16:51:40.482Z,92.00
2018-03-16T16:52:40.408Z,76.00
2018-03-16T16:53:40.379Z,84.00
2018-03-16T16:54:40.352Z,80.00
2018-03-16T16:55:40.326Z,80.00
2018-03-16T16:56:40.298Z,120.00
2018-03-16T16:57:40.316Z,96.00
2018-03-16T16:58:40.257Z,88.00
2018-03-16T16:59:40.252Z,80.00
2018-03-16T17:00:40.215Z,116.00
2018-03-16T17:01:40.242Z,112.00
2018-03-16T17:02:40.738Z,132.00
2018-03-16T17:03:40.111Z,112.00
2018-03-16T17:04:40.085Z,100.00
2018-03-16T17:05:40.059Z,80.00
2018-03-16T17:06:40.091Z,72.00
2018-03-16T17:07:40.049Z,64.00
2018-03-16T17:08:40.024Z,64.00
2018-03-16T17:09:39.951Z,64.00
2018-03-16T17:10:39.938Z,48.00
2018-03-16T17:21:06.056Z,28.00
2018-03-16T17:22:06.003Z,32.00
2018-03-16T17:23:59.325Z,32.00
2018-03-16T17:24:59.283Z,24.00
2018-03-16T17:26:52.643Z,24.00
2018-03-16T17:27:52.548Z,24.00
2018-03-16T17:29:45.921Z,24.00
2018-03-16T17:30:45.842Z,20.00
2018-03-16T17:32:39.216Z,20.00
2018-03-16T17:33:39.153Z,16.00
2018-03-16T17:35:32.537Z,12.00
2018-03-16T17:36:32.436Z,12.00
2018-03-16T17:38:25.849Z,8.00
2018-03-16T17:39:25.735Z,4.00
2018-03-16T17:41:20.084Z,4.00
2018-03-16T17:42:20.050Z,4.00
2018-03-16T17:44:13.420Z,4.00
2018-03-16T17:45:13.350Z,4.00
2018-03-16T17:47:06.677Z,0.00
2018-03-16T17:48:06.669Z,0.00
2018-03-16T17:50:00.021Z,0.00
2018-03-16T17:50:59.942Z,4.00
2018-03-16T17:52:53.271Z,4.00
2018-03-16T17:53:53.239Z,0.00
2018-03-16T17:55:46.613Z,0.00
2018-03-16T17:56:46.536Z,0.00
2018-03-16T17:58:39.916Z,0.00
2018-03-16T17:59:39.832Z,0.00
2018-03-16T18:01:33.161Z,0.00
2018-03-16T18:02:33.132Z,0.00
2018-03-16T18:04:27.512Z,0.00
2018-03-16T18:05:27.430Z,0.00
2018-03-16T18:07:20.766Z,0.00
2018-03-16T18:08:20.774Z,0.00
2018-03-16T18:10:14.120Z,0.00
2018-03-16T18:11:14.042Z,0.00
2018-03-16T18:13:11.736Z,0.00
2018-03-16T18:14:11.708Z,0.00
2018-03-16T18:16:09.760Z,0.00
2018-03-16T18:17:09.678Z,0.00
2018-03-16T18:19:02.999Z,0.00
2018-03-16T18:20:02.969Z,0.00
2018-03-16T18:21:58.332Z,0.00
2018-03-16T18:22:58.256Z,0.00
2018-03-16T18:24:52.699Z,0.00
2018-03-16T18:25:52.562Z,0.00
2018-03-16T18:27:46.942Z,0.00
2018-03-16T18:28:46.866Z,0.00
2018-03-16T18:30:40.356Z,0.00
2018-03-16T18:31:40.164Z,0.00
2018-03-16T18:33:33.492Z,0.00
2018-03-16T18:34:33.463Z,0.00
2018-03-16T18:36:26.847Z,0.00
2018-03-16T18:37:26.762Z,0.00
2018-03-16T18:39:20.131Z,0.00
2018-03-16T18:40:20.057Z,0.00
2018-03-16T18:41:20.029Z,0.00
2018-03-16T18:42:20.001Z,0.00
2018-03-16T18:43:19.976Z,0.00
2018-03-16T18:44:19.948Z,0.00
2018-03-16T18:45:19.920Z,0.00
2018-03-16T18:46:19.892Z,0.00
2018-03-16T18:47:19.863Z,0.00
2018-03-16T18:48:19.842Z,0.00
2018-03-16T18:49:19.812Z,0.00
2018-03-16T18:50:19.790Z,0.00
2018-03-16T18:51:19.758Z,0.00
2018-03-16T18:52:19.781Z,0.00
2018-03-16T18:53:19.702Z,0.00
2018-03-16T18:54:19.674Z,0.00
2018-03-16T18:55:19.665Z,0.00
2018-03-16T18:56:19.632Z,0.00
2018-03-16T18:57:19.592Z,0.00
2018-03-16T18:58:19.564Z,0.00
2018-03-16T18:59:19.536Z,0.00
2018-03-16T19:00:19.510Z,0.00
2018-03-16T19:01:19.485Z,0.00
2018-03-16T19:02:19.454Z,0.00
2018-03-16T19:03:19.430Z,0.00
2018-03-16T19:04:19.399Z,0.00
2018-03-16T19:05:19.421Z,0.00
2018-03-16T19:06:19.346Z,0.00
2018-03-16T19:07:19.317Z,0.00
2018-03-16T19:08:19.290Z,0.00
2018-03-16T19:09:19.284Z,0.00
2018-03-16T19:10:19.238Z,0.00
2018-03-16T19:11:19.206Z,0.00
2018-03-16T19:12:19.179Z,0.00
2018-03-16T19:13:19.151Z,0.00
2018-03-16T19:14:19.130Z,0.00
2018-03-16T19:15:19.097Z,0.00
2018-03-16T19:16:19.068Z,0.00
2018-03-16T19:17:19.043Z,0.00
2018-03-16T19:18:19.017Z,0.00
2018-03-16T19:19:18.999Z,0.00
2018-03-16T19:20:19.687Z,0.00
2018-03-16T19:21:19.201Z,0.00
2018-03-16T19:22:18.934Z,0.00
2018-03-16T19:23:18.919Z,0.00
2018-03-16T19:24:18.862Z,0.00
2018-03-16T19:25:18.860Z,0.00
2018-03-16T19:26:18.805Z,0.00
2018-03-16T19:27:19.163Z,0.00
2018-03-16T19:28:18.746Z,0.00
2018-03-16T19:29:18.730Z,0.00
2018-03-16T19:30:18.685Z,0.00
2018-03-16T19:31:18.654Z,0.00
2018-03-16T19:32:18.664Z,0.00
2018-03-16T19:33:20.240Z,0.00
2018-03-16T19:34:18.642Z,0.00
2018-03-16T19:35:19.623Z,0.00
2018-03-16T19:36:18.752Z,0.00
2018-03-16T19:37:18.492Z,0.00
2018-03-16T19:38:18.465Z,0.00
2018-03-16T19:39:18.473Z,0.00
2018-03-16T19:40:18.418Z,0.00
2018-03-16T19:41:19.942Z,0.00
2018-03-16T19:42:18.382Z,0.00
2018-03-16T19:43:18.404Z,0.00
2018-03-16T19:44:18.321Z,0.00
2018-03-16T19:45:18.368Z,0.00
2018-03-16T19:46:18.279Z,0.00
2018-03-16T19:47:18.258Z,0.00
2018-03-16T19:48:18.265Z,0.00
2018-03-16T19:49:18.199Z,0.00
2018-03-16T19:50:18.163Z,0.00
2018-03-16T19:51:18.519Z,0.00
2018-03-16T19:52:18.102Z,0.00
2018-03-16T19:53:18.062Z,0.00
2018-03-16T19:54:18.052Z,0.00
2018-03-16T19:55:18.022Z,0.00
2018-03-16T19:56:17.987Z,0.00
2018-03-16T19:57:17.977Z,0.00
2018-03-16T19:58:18.758Z,0.00
2018-03-16T19:59:17.905Z,0.00
2018-03-16T20:00:17.952Z,0.00
2018-03-16T20:01:17.875Z,0.00
2018-03-16T20:02:17.860Z,0.00
2018-03-16T20:03:18.768Z,0.00
2018-03-16T20:04:18.817Z,0.00
2018-03-16T20:05:17.751Z,0.00
2018-03-16T20:06:17.697Z,0.00
2018-03-16T20:07:17.672Z,0.00
2018-03-16T20:08:17.692Z,0.00
2018-03-16T20:09:17.629Z,0.00
2018-03-16T20:10:17.611Z,0.00
2018-03-16T20:11:17.574Z,0.00
2018-03-16T20:12:17.600Z,0.00
2018-03-16T20:13:17.540Z,0.00
2018-03-16T20:14:17.470Z,0.00
2018-03-16T20:15:17.473Z,0.00
2018-03-16T20:16:17.467Z,0.00
2018-03-16T20:17:17.449Z,0.00
2018-03-16T20:18:17.412Z,0.00
2018-03-16T20:19:17.384Z,0.00
2018-03-16T20:20:17.342Z,0.00
2018-03-16T20:21:17.319Z,0.00
2018-03-16T20:22:17.293Z,0.00
2018-03-16T20:23:17.222Z,0.00
2018-03-16T20:24:17.191Z,0.00
2018-03-16T20:25:17.220Z,0.00
2018-03-16T20:26:17.183Z,0.00
2018-03-16T20:27:17.173Z,0.00
2018-03-16T20:28:17.144Z,0.00
2018-03-16T20:29:17.084Z,0.00
2018-03-16T20:30:17.051Z,0.00
2018-03-16T20:31:17.043Z,0.00
2018-03-16T20:32:17.004Z,0.00
2018-03-16T20:33:16.943Z,0.00
2018-03-16T20:34:16.939Z,0.00
2018-03-16T20:35:16.893Z,0.00
2018-03-16T20:36:16.947Z,0.00
2018-03-16T20:37:16.857Z,0.00
2018-03-16T20:38:16.881Z,0.00
2018-03-16T20:39:16.826Z,0.00
2018-03-16T20:40:16.795Z,0.00
2018-03-16T20:41:16.771Z,0.00
2018-03-16T20:42:16.750Z,0.00
2018-03-16T20:43:16.671Z,0.00
2018-03-16T20:44:16.636Z,0.00
2018-03-16T20:45:16.608Z,0.00
2018-03-16T20:46:16.603Z,0.00
2018-03-16T20:47:16.552Z,0.00
2018-03-16T20:48:16.539Z,0.00
2018-03-16T20:49:16.498Z,0.00
2018-03-16T20:50:16.518Z,0.00
2018-03-16T20:51:16.451Z,0.00
2018-03-16T20:52:16.414Z,0.00
2018-03-16T20:53:16.385Z,0.00
2018-03-16T20:54:16.371Z,0.00
2018-03-16T20:55:16.349Z,0.00
2018-03-16T20:56:16.358Z,0.00
2018-03-16T20:57:16.297Z,0.00
2018-03-16T20:58:16.339Z,0.00
2018-03-16T20:59:16.295Z,0.00
2018-03-16T21:00:16.221Z,0.00
2018-03-16T21:01:16.174Z,0.00
2018-03-16T21:02:16.186Z,0.00
2018-03-16T21:03:16.106Z,0.00
2018-03-16T21:04:16.092Z,0.00
2018-03-16T21:05:16.070Z,0.00
2018-03-16T21:06:16.028Z,0.00
2018-03-16T21:07:15.992Z,0.00
2018-03-16T21:08:15.970Z,0.00
2018-03-16T21:09:15.938Z,0.00
2018-03-16T21:10:15.914Z,0.00
2018-03-16T21:11:15.892Z,0.00
2018-03-16T21:12:15.878Z,0.00
2018-03-16T21:13:15.826Z,0.00
2018-03-16T21:14:15.798Z,0.00
2018-03-16T21:15:15.771Z,0.00
2018-03-16T21:16:15.744Z,0.00
2018-03-16T21:17:15.716Z,0.00
2018-03-16T21:18:15.687Z,0.00
2018-03-16T21:19:15.659Z,0.00
2018-03-16T21:20:15.632Z,0.00
2018-03-16T21:21:15.603Z,0.00
2018-03-16T21:22:15.575Z,0.00
2018-03-16T21:23:15.552Z,0.00
2018-03-16T21:24:15.521Z,0.00
2018-03-16T21:25:15.490Z,0.00
2018-03-16T21:26:15.465Z,0.00
2018-03-16T21:27:15.452Z,0.00
2018-03-16T21:28:15.433Z,0.00
2018-03-16T21:29:15.382Z,0.00
2018-03-16T21:30:15.361Z,0.00
2018-03-16T21:31:15.324Z,0.00
2018-03-16T21:32:15.296Z,0.00
2018-03-16T21:33:15.269Z,0.00
2018-03-16T21:34:15.310Z,0.00
2018-03-16T21:35:15.211Z,0.00
2018-03-16T21:36:15.183Z,0.00
2018-03-16T21:37:15.158Z,0.00
2018-03-16T21:38:15.131Z,0.00
2018-03-16T21:39:15.100Z,0.00
2018-03-16T21:40:15.073Z,0.00
2018-03-16T21:41:15.046Z,0.00
2018-03-16T21:42:15.051Z,0.00
2018-03-16T21:43:14.988Z,0.00
2018-03-16T21:44:14.981Z,0.00
2018-03-16T21:45:14.943Z,0.00
2018-03-16T21:46:14.905Z,0.00
2018-03-16T21:47:14.907Z,0.00
2018-03-16T21:48:14.850Z,0.00
2018-03-16T21:49:14.863Z,0.00
2018-03-16T21:50:14.794Z,0.00
2018-03-16T21:51:14.779Z,0.00
2018-03-16T21:52:14.774Z,0.00
2018-03-16T21:53:14.717Z,0.00
2018-03-16T21:54:14.683Z,0.00
2018-03-16T21:55:14.653Z,0.00
2018-03-16T21:56:14.627Z,0.00
2018-03-16T21:57:14.597Z,0.00
2018-03-16T21:58:14.576Z,0.00
2018-03-16T21:59:14.542Z,0.00
2018-03-16T22:00:14.514Z,0.00
2018-03-16T22:01:14.487Z,0.00
2018-03-16T22:02:14.460Z,0.00
2018-03-16T22:03:14.430Z,0.00
2018-03-16T22:04:14.401Z,0.00
2018-03-16T22:05:14.386Z,0.00
2018-03-16T22:06:14.405Z,0.00
2018-03-16T22:07:14.346Z,0.00
2018-03-16T22:08:14.418Z,0.00
2018-03-16T22:09:15.292Z,0.00
2018-03-16T22:10:14.240Z,0.00
2018-03-16T22:11:14.226Z,0.00
2018-03-16T22:12:14.211Z,0.00
2018-03-16T22:13:14.152Z,0.00
2018-03-16T22:14:14.121Z,0.00
2018-03-16T22:15:14.107Z,0.00
2018-03-16T22:16:14.098Z,0.00
2018-03-16T22:17:14.049Z,0.00
2018-03-16T22:18:14.033Z,0.00
2018-03-16T22:19:14.045Z,0.00
2018-03-16T22:20:13.974Z,0.00
2018-03-16T22:21:13.952Z,0.00
2018-03-16T22:22:13.954Z,0.00
2018-03-16T22:23:13.867Z,0.00
2018-03-16T22:24:13.847Z,0.00
2018-03-16T22:25:13.869Z,0.00
2018-03-16T22:26:13.787Z,0.00
2018-03-16T22:27:13.785Z,0.00
2018-03-16T22:28:13.726Z,0.00
2018-03-16T22:29:13.699Z,0.00
2018-03-16T22:30:13.672Z,0.00
2018-03-16T22:31:13.651Z,0.00
2018-03-16T22:32:13.613Z,0.00
2018-03-16T22:33:13.587Z,0.00
2018-03-16T22:34:14.229Z,0.00
2018-03-16T22:35:13.528Z,0.00
2018-03-16T22:36:13.553Z,0.00
2018-03-16T22:37:13.472Z,0.00
2018-03-16T22:38:13.446Z,0.00
2018-03-16T22:39:13.415Z,0.00
2018-03-16T22:40:13.389Z,0.00
2018-03-16T22:41:13.366Z,0.00
2018-03-16T22:42:13.331Z,0.00
2018-03-16T22:43:13.302Z,0.00
2018-03-16T22:44:13.275Z,0.00
2018-03-16T22:45:13.278Z,0.00
2018-03-16T22:46:13.258Z,0.00
2018-03-16T22:47:13.196Z,0.00
2018-03-16T22:48:13.175Z,0.00
2018-03-16T22:49:13.134Z,0.00
2018-03-16T22:50:13.106Z,0.00
2018-03-16T22:51:13.081Z,0.00
2018-03-16T22:52:13.051Z,0.00
2018-03-16T22:53:13.020Z,0.00
2018-03-16T22:54:12.993Z,0.00
2018-03-16T22:55:12.965Z,0.00
2018-03-16T22:56:12.937Z,0.00
2018-03-16T22:57:12.924Z,0.00
2018-03-16T22:58:12.881Z,0.00
2018-03-16T22:59:12.874Z,0.00
2018-03-16T23:00:12.854Z,0.00
2018-03-16T23:01:12.797Z,0.00
2018-03-16T23:02:12.768Z,0.00
2018-03-16T23:03:12.738Z,0.00
2018-03-16T23:04:12.713Z,0.00
2018-03-16T23:05:12.682Z,0.00
2018-03-16T23:06:12.657Z,0.00
2018-03-16T23:07:12.627Z,0.00
2018-03-16T23:08:12.600Z,0.00
2018-03-16T23:09:12.570Z,0.00
2018-03-16T23:10:12.541Z,0.00
2018-03-16T23:11:12.513Z,0.00
2018-03-16T23:12:12.485Z,0.00
2018-03-16T23:13:12.456Z,0.00
2018-03-16T23:14:12.431Z,0.00
2018-03-16T23:15:12.399Z,0.00
2018-03-16T23:16:12.372Z,0.00
2018-03-16T23:17:12.342Z,0.00
2018-03-16T23:18:12.317Z,0.00
2018-03-16T23:19:12.285Z,0.00